sensor_id;sensor_type;location;lat;lon;timestamp;P1;durP1;ratioP1;P2;durP2;ratioP2
13218;SDS011;6674;49.152;11.918;2023-02-07T00:01:38;10.87;;;9.33;;
13218;SDS011;6674;49.152;11.918;2023-02-07T00:04:05;11.83;;;9.60;;
13218;SDS011;6674;49.152;11.918;2023-02-07T00:06:32;12.23;;;9.37;;
13218;SDS011;6674;49.152;11.918;2023-02-07T00:09:01;13.33;;;9.90;;
13218;SDS011;6674;49.152;11.918;2023-02-07T00:11:29;13.33;;;10.43;;
13218;SDS011;6674;49.152;11.918;2023-02-07T00:13:57;13.30;;;9.80;;
13218;SDS011;6674;49.152;11.918;2023-02-07T00:16:24;11.90;;;9.67;;
13218;SDS011;6674;49.152;11.918;2023-02-07T00:18:51;13.23;;;10.10;;
13218;SDS011;6674;49.152;11.918;2023-02-07T00:21:20;11.97;;;9.70;;
13218;SDS011;6674;49.152;11.918;2023-02-07T00:23:48;12.50;;;9.37;;
13218;SDS011;6674;49.152;11.918;2023-02-07T00:26:16;15.43;;;11.27;;
13218;SDS011;6674;49.152;11.918;2023-02-07T00:28:45;15.83;;;11.83;;
13218;SDS011;6674;49.152;11.918;2023-02-07T00:31:14;16.03;;;12.47;;
13218;SDS011;6674;49.152;11.918;2023-02-07T00:33:43;17.40;;;12.57;;
13218;SDS011;6674;49.152;11.918;2023-02-07T00:36:12;15.23;;;11.20;;
13218;SDS011;6674;49.152;11.918;2023-02-07T00:38:41;14.20;;;10.43;;
13218;SDS011;6674;49.152;11.918;2023-02-07T00:41:09;12.87;;;10.47;;
13218;SDS011;6674;49.152;11.918;2023-02-07T00:43:39;13.90;;;10.40;;
13218;SDS011;6674;49.152;11.918;2023-02-07T00:46:05;15.77;;;12.53;;
13218;SDS011;6674;49.152;11.918;2023-02-07T00:48:34;14.93;;;11.50;;
13218;SDS011;6674;49.152;11.918;2023-02-07T00:51:04;15.50;;;11.87;;
13218;SDS011;6674;49.152;11.918;2023-02-07T00:53:32;12.23;;;10.03;;
13218;SDS011;6674;49.152;11.918;2023-02-07T00:56:00;13.97;;;11.20;;
13218;SDS011;6674;49.152;11.918;2023-02-07T00:58:26;17.43;;;12.17;;
13218;SDS011;6674;49.152;11.918;2023-02-07T01:00:53;16.53;;;11.87;;
13218;SDS011;6674;49.152;11.918;2023-02-07T01:03:20;13.57;;;10.70;;
13218;SDS011;6674;49.152;11.918;2023-02-07T01:05:48;14.97;;;10.93;;
13218;SDS011;6674;49.152;11.918;2023-02-07T01:08:14;13.97;;;10.90;;
13218;SDS011;6674;49.152;11.918;2023-02-07T01:10:42;16.13;;;12.10;;
13218;SDS011;6674;49.152;11.918;2023-02-07T01:13:10;13.87;;;11.27;;
13218;SDS011;6674;49.152;11.918;2023-02-07T01:15:38;14.60;;;12.13;;
13218;SDS011;6674;49.152;11.918;2023-02-07T01:18:09;12.80;;;10.20;;
13218;SDS011;6674;49.152;11.918;2023-02-07T01:20:36;13.23;;;11.43;;
13218;SDS011;6674;49.152;11.918;2023-02-07T01:23:05;16.37;;;11.93;;
13218;SDS011;6674;49.152;11.918;2023-02-07T01:25:32;15.47;;;11.07;;
13218;SDS011;6674;49.152;11.918;2023-02-07T01:28:00;15.37;;;10.87;;
13218;SDS011;6674;49.152;11.918;2023-02-07T01:30:27;18.60;;;12.83;;
13218;SDS011;6674;49.152;11.918;2023-02-07T01:32:54;14.07;;;11.77;;
13218;SDS011;6674;49.152;11.918;2023-02-07T01:35:21;17.37;;;12.87;;
13218;SDS011;6674;49.152;11.918;2023-02-07T01:37:48;16.30;;;11.97;;
13218;SDS011;6674;49.152;11.918;2023-02-07T01:40:16;13.20;;;10.70;;
13218;SDS011;6674;49.152;11.918;2023-02-07T01:42:44;13.70;;;10.27;;
13218;SDS011;6674;49.152;11.918;2023-02-07T01:45:24;15.27;;;11.30;;
13218;SDS011;6674;49.152;11.918;2023-02-07T01:47:55;15.10;;;11.00;;
13218;SDS011;6674;49.152;11.918;2023-02-07T01:50:25;12.30;;;10.40;;
13218;SDS011;6674;49.152;11.918;2023-02-07T01:52:53;19.33;;;13.27;;
13218;SDS011;6674;49.152;11.918;2023-02-07T01:55:25;16.00;;;11.70;;
13218;SDS011;6674;49.152;11.918;2023-02-07T01:57:56;14.10;;;11.33;;
13218;SDS011;6674;49.152;11.918;2023-02-07T02:00:23;15.97;;;11.40;;
13218;SDS011;6674;49.152;11.918;2023-02-07T02:02:56;14.77;;;11.27;;
13218;SDS011;6674;49.152;11.918;2023-02-07T02:05:23;15.30;;;12.30;;
13218;SDS011;6674;49.152;11.918;2023-02-07T02:07:50;17.07;;;12.30;;
13218;SDS011;6674;49.152;11.918;2023-02-07T02:10:17;17.53;;;12.23;;
13218;SDS011;6674;49.152;11.918;2023-02-07T02:15:43;14.97;;;11.90;;
13218;SDS011;6674;49.152;11.918;2023-02-07T02:18:27;15.73;;;11.47;;
13218;SDS011;6674;49.152;11.918;2023-02-07T02:24:19;15.70;;;12.30;;
13218;SDS011;6674;49.152;11.918;2023-02-07T02:27:10;14.73;;;11.03;;
13218;SDS011;6674;49.152;11.918;2023-02-07T02:30:03;16.23;;;11.93;;
13218;SDS011;6674;49.152;11.918;2023-02-07T02:33:06;16.60;;;12.10;;
13218;SDS011;6674;49.152;11.918;2023-02-07T02:35:44;16.60;;;12.27;;
13218;SDS011;6674;49.152;11.918;2023-02-07T02:38:23;16.90;;;13.13;;
13218;SDS011;6674;49.152;11.918;2023-02-07T02:40:56;18.87;;;12.07;;
13218;SDS011;6674;49.152;11.918;2023-02-07T02:43:30;14.87;;;11.90;;
13218;SDS011;6674;49.152;11.918;2023-02-07T02:46:03;18.23;;;13.33;;
13218;SDS011;6674;49.152;11.918;2023-02-07T02:48:34;22.67;;;14.17;;
13218;SDS011;6674;49.152;11.918;2023-02-07T02:51:02;17.60;;;13.80;;
13218;SDS011;6674;49.152;11.918;2023-02-07T02:53:30;18.83;;;14.17;;
13218;SDS011;6674;49.152;11.918;2023-02-07T02:56:01;15.37;;;12.53;;
13218;SDS011;6674;49.152;11.918;2023-02-07T02:58:41;19.90;;;14.67;;
13218;SDS011;6674;49.152;11.918;2023-02-07T03:01:21;15.40;;;12.07;;
13218;SDS011;6674;49.152;11.918;2023-02-07T03:04:01;17.13;;;13.10;;
13218;SDS011;6674;49.152;11.918;2023-02-07T03:06:36;17.30;;;12.17;;
13218;SDS011;6674;49.152;11.918;2023-02-07T03:09:16;15.77;;;11.57;;
13218;SDS011;6674;49.152;11.918;2023-02-07T03:11:54;16.17;;;12.03;;
13218;SDS011;6674;49.152;11.918;2023-02-07T03:14:25;16.80;;;12.13;;
13218;SDS011;6674;49.152;11.918;2023-02-07T03:17:00;14.57;;;11.53;;
13218;SDS011;6674;49.152;11.918;2023-02-07T03:19:38;15.17;;;12.50;;
13218;SDS011;6674;49.152;11.918;2023-02-07T03:22:09;15.53;;;12.13;;
13218;SDS011;6674;49.152;11.918;2023-02-07T03:24:40;16.60;;;12.40;;
13218;SDS011;6674;49.152;11.918;2023-02-07T03:27:10;14.03;;;10.67;;
13218;SDS011;6674;49.152;11.918;2023-02-07T03:29:40;13.23;;;10.80;;
13218;SDS011;6674;49.152;11.918;2023-02-07T03:32:11;13.13;;;10.47;;
13218;SDS011;6674;49.152;11.918;2023-02-07T03:34:44;13.63;;;10.23;;
13218;SDS011;6674;49.152;11.918;2023-02-07T03:37:17;12.83;;;10.03;;
13218;SDS011;6674;49.152;11.918;2023-02-07T03:39:47;13.20;;;10.23;;
13218;SDS011;6674;49.152;11.918;2023-02-07T03:42:14;17.67;;;13.23;;
13218;SDS011;6674;49.152;11.918;2023-02-07T03:44:46;15.80;;;11.70;;
13218;SDS011;6674;49.152;11.918;2023-02-07T03:47:16;15.90;;;12.40;;
13218;SDS011;6674;49.152;11.918;2023-02-07T03:49:44;13.43;;;10.13;;
13218;SDS011;6674;49.152;11.918;2023-02-07T03:52:11;15.20;;;10.97;;
13218;SDS011;6674;49.152;11.918;2023-02-07T03:54:38;12.93;;;10.27;;
13218;SDS011;6674;49.152;11.918;2023-02-07T03:57:04;15.93;;;12.00;;
13218;SDS011;6674;49.152;11.918;2023-02-07T03:59:31;16.20;;;12.07;;
13218;SDS011;6674;49.152;11.918;2023-02-07T04:01:58;16.00;;;11.73;;
13218;SDS011;6674;49.152;11.918;2023-02-07T04:04:25;16.13;;;12.30;;
13218;SDS011;6674;49.152;11.918;2023-02-07T04:06:53;16.47;;;12.47;;
13218;SDS011;6674;49.152;11.918;2023-02-07T04:09:20;16.27;;;11.77;;
13218;SDS011;6674;49.152;11.918;2023-02-07T04:11:49;14.97;;;12.33;;
13218;SDS011;6674;49.152;11.918;2023-02-07T04:14:17;14.40;;;11.03;;
13218;SDS011;6674;49.152;11.918;2023-02-07T04:16:45;17.43;;;11.90;;
13218;SDS011;6674;49.152;11.918;2023-02-07T04:19:12;15.47;;;11.07;;
13218;SDS011;6674;49.152;11.918;2023-02-07T04:21:40;14.60;;;11.40;;
13218;SDS011;6674;49.152;11.918;2023-02-07T04:24:08;13.80;;;11.07;;
13218;SDS011;6674;49.152;11.918;2023-02-07T04:26:34;14.93;;;11.63;;
13218;SDS011;6674;49.152;11.918;2023-02-07T04:29:01;14.33;;;12.10;;
13218;SDS011;6674;49.152;11.918;2023-02-07T04:31:28;16.60;;;13.40;;
13218;SDS011;6674;49.152;11.918;2023-02-07T04:33:54;16.33;;;13.07;;
13218;SDS011;6674;49.152;11.918;2023-02-07T04:36:21;17.43;;;12.90;;
13218;SDS011;6674;49.152;11.918;2023-02-07T04:38:48;18.63;;;13.03;;
13218;SDS011;6674;49.152;11.918;2023-02-07T04:41:16;16.73;;;12.20;;
13218;SDS011;6674;49.152;11.918;2023-02-07T04:43:44;18.67;;;13.40;;
13218;SDS011;6674;49.152;11.918;2023-02-07T04:46:10;16.30;;;12.33;;
13218;SDS011;6674;49.152;11.918;2023-02-07T04:48:37;17.03;;;12.33;;
13218;SDS011;6674;49.152;11.918;2023-02-07T04:51:04;15.20;;;12.07;;
13218;SDS011;6674;49.152;11.918;2023-02-07T04:53:31;16.67;;;12.50;;
13218;SDS011;6674;49.152;11.918;2023-02-07T04:55:58;15.37;;;12.33;;
13218;SDS011;6674;49.152;11.918;2023-02-07T04:58:26;16.37;;;12.67;;
13218;SDS011;6674;49.152;11.918;2023-02-07T05:00:52;17.07;;;12.80;;
13218;SDS011;6674;49.152;11.918;2023-02-07T05:03:19;18.60;;;13.80;;
13218;SDS011;6674;49.152;11.918;2023-02-07T05:05:46;14.10;;;11.60;;
13218;SDS011;6674;49.152;11.918;2023-02-07T05:08:13;14.50;;;11.80;;
13218;SDS011;6674;49.152;11.918;2023-02-07T05:10:39;13.37;;;11.50;;
13218;SDS011;6674;49.152;11.918;2023-02-07T05:13:06;17.03;;;13.00;;
13218;SDS011;6674;49.152;11.918;2023-02-07T05:15:34;19.37;;;13.97;;
13218;SDS011;6674;49.152;11.918;2023-02-07T05:18:01;15.97;;;12.97;;
13218;SDS011;6674;49.152;11.918;2023-02-07T05:20:28;14.67;;;11.97;;
13218;SDS011;6674;49.152;11.918;2023-02-07T05:22:55;17.67;;;12.40;;
13218;SDS011;6674;49.152;11.918;2023-02-07T05:25:22;16.03;;;11.90;;
13218;SDS011;6674;49.152;11.918;2023-02-07T05:27:48;16.33;;;12.50;;
13218;SDS011;6674;49.152;11.918;2023-02-07T05:30:15;16.03;;;11.77;;
13218;SDS011;6674;49.152;11.918;2023-02-07T05:32:43;13.90;;;11.40;;
13218;SDS011;6674;49.152;11.918;2023-02-07T05:35:27;16.40;;;12.00;;
13218;SDS011;6674;49.152;11.918;2023-02-07T05:37:54;14.57;;;11.43;;
13218;SDS011;6674;49.152;11.918;2023-02-07T05:40:20;13.13;;;11.40;;
13218;SDS011;6674;49.152;11.918;2023-02-07T05:42:53;13.73;;;10.90;;
13218;SDS011;6674;49.152;11.918;2023-02-07T05:45:20;15.97;;;13.33;;
13218;SDS011;6674;49.152;11.918;2023-02-07T05:47:48;17.30;;;13.70;;
13218;SDS011;6674;49.152;11.918;2023-02-07T05:50:15;16.97;;;13.20;;
13218;SDS011;6674;49.152;11.918;2023-02-07T05:52:42;15.47;;;12.07;;
13218;SDS011;6674;49.152;11.918;2023-02-07T05:55:08;14.13;;;11.57;;
13218;SDS011;6674;49.152;11.918;2023-02-07T05:57:37;16.60;;;12.33;;
13218;SDS011;6674;49.152;11.918;2023-02-07T06:00:05;15.37;;;12.00;;
13218;SDS011;6674;49.152;11.918;2023-02-07T06:02:33;16.07;;;11.50;;
13218;SDS011;6674;49.152;11.918;2023-02-07T06:05:02;14.60;;;11.37;;
13218;SDS011;6674;49.152;11.918;2023-02-07T06:07:29;19.00;;;14.13;;
13218;SDS011;6674;49.152;11.918;2023-02-07T06:09:56;25.40;;;16.47;;
13218;SDS011;6674;49.152;11.918;2023-02-07T06:12:22;20.13;;;15.10;;
13218;SDS011;6674;49.152;11.918;2023-02-07T06:14:49;19.70;;;14.30;;
13218;SDS011;6674;49.152;11.918;2023-02-07T06:17:18;20.17;;;14.67;;
13218;SDS011;6674;49.152;11.918;2023-02-07T06:19:44;18.97;;;14.27;;
13218;SDS011;6674;49.152;11.918;2023-02-07T06:22:13;18.17;;;13.03;;
13218;SDS011;6674;49.152;11.918;2023-02-07T06:24:39;17.57;;;13.23;;
13218;SDS011;6674;49.152;11.918;2023-02-07T06:27:06;16.80;;;13.23;;
13218;SDS011;6674;49.152;11.918;2023-02-07T06:29:33;17.30;;;14.17;;
13218;SDS011;6674;49.152;11.918;2023-02-07T06:31:59;18.30;;;13.80;;
13218;SDS011;6674;49.152;11.918;2023-02-07T06:34:26;18.67;;;14.03;;
13218;SDS011;6674;49.152;11.918;2023-02-07T06:36:53;18.17;;;13.33;;
13218;SDS011;6674;49.152;11.918;2023-02-07T06:39:22;20.37;;;14.47;;
13218;SDS011;6674;49.152;11.918;2023-02-07T06:41:49;18.10;;;13.43;;
13218;SDS011;6674;49.152;11.918;2023-02-07T06:44:15;15.00;;;12.63;;
13218;SDS011;6674;49.152;11.918;2023-02-07T06:46:42;20.30;;;14.53;;
13218;SDS011;6674;49.152;11.918;2023-02-07T06:49:09;18.00;;;13.87;;
13218;SDS011;6674;49.152;11.918;2023-02-07T06:51:35;16.93;;;13.57;;
13218;SDS011;6674;49.152;11.918;2023-02-07T06:54:02;16.70;;;13.10;;
13218;SDS011;6674;49.152;11.918;2023-02-07T06:56:34;17.47;;;13.53;;
13218;SDS011;6674;49.152;11.918;2023-02-07T06:59:01;21.60;;;16.87;;
13218;SDS011;6674;49.152;11.918;2023-02-07T07:01:28;22.93;;;16.63;;
13218;SDS011;6674;49.152;11.918;2023-02-07T07:03:54;20.93;;;15.47;;
13218;SDS011;6674;49.152;11.918;2023-02-07T07:06:21;22.80;;;17.03;;
13218;SDS011;6674;49.152;11.918;2023-02-07T07:08:47;37.13;;;23.87;;
13218;SDS011;6674;49.152;11.918;2023-02-07T07:11:16;37.37;;;23.00;;
13218;SDS011;6674;49.152;11.918;2023-02-07T07:13:45;22.53;;;16.50;;
13218;SDS011;6674;49.152;11.918;2023-02-07T07:16:11;21.93;;;15.83;;
13218;SDS011;6674;49.152;11.918;2023-02-07T07:18:38;40.70;;;23.33;;
13218;SDS011;6674;49.152;11.918;2023-02-07T07:21:06;49.53;;;30.73;;
13218;SDS011;6674;49.152;11.918;2023-02-07T07:23:33;50.37;;;30.67;;
13218;SDS011;6674;49.152;11.918;2023-02-07T07:25:59;40.33;;;25.47;;
13218;SDS011;6674;49.152;11.918;2023-02-07T07:28:26;51.00;;;30.10;;
13218;SDS011;6674;49.152;11.918;2023-02-07T07:31:00;182.27;;;76.67;;
13218;SDS011;6674;49.152;11.918;2023-02-07T07:33:27;126.43;;;55.13;;
13218;SDS011;6674;49.152;11.918;2023-02-07T07:35:55;68.60;;;36.90;;
13218;SDS011;6674;49.152;11.918;2023-02-07T07:38:22;103.07;;;50.67;;
13218;SDS011;6674;49.152;11.918;2023-02-07T07:40:49;146.07;;;69.67;;
13218;SDS011;6674;49.152;11.918;2023-02-07T07:43:15;76.07;;;41.07;;
13218;SDS011;6674;49.152;11.918;2023-02-07T07:45:42;50.17;;;27.33;;
13218;SDS011;6674;49.152;11.918;2023-02-07T07:48:10;38.90;;;23.87;;
13218;SDS011;6674;49.152;11.918;2023-02-07T07:50:37;52.27;;;30.43;;
13218;SDS011;6674;49.152;11.918;2023-02-07T07:53:03;45.87;;;25.73;;
13218;SDS011;6674;49.152;11.918;2023-02-07T07:55:30;26.20;;;17.70;;
13218;SDS011;6674;49.152;11.918;2023-02-07T07:57:56;64.63;;;34.00;;
13218;SDS011;6674;49.152;11.918;2023-02-07T08:00:23;50.03;;;28.00;;
13218;SDS011;6674;49.152;11.918;2023-02-07T08:02:49;50.43;;;28.40;;
13218;SDS011;6674;49.152;11.918;2023-02-07T08:05:17;34.50;;;25.27;;
13218;SDS011;6674;49.152;11.918;2023-02-07T08:07:44;21.23;;;17.90;;
13218;SDS011;6674;49.152;11.918;2023-02-07T08:10:11;22.87;;;17.37;;
13218;SDS011;6674;49.152;11.918;2023-02-07T08:12:37;18.30;;;14.17;;
13218;SDS011;6674;49.152;11.918;2023-02-07T08:15:04;21.07;;;14.03;;
13218;SDS011;6674;49.152;11.918;2023-02-07T08:17:33;20.70;;;14.70;;
13218;SDS011;6674;49.152;11.918;2023-02-07T08:20:01;20.83;;;15.13;;
13218;SDS011;6674;49.152;11.918;2023-02-07T08:22:30;27.73;;;20.37;;
13218;SDS011;6674;49.152;11.918;2023-02-07T08:24:57;30.20;;;21.77;;
13218;SDS011;6674;49.152;11.918;2023-02-07T08:27:24;26.30;;;19.27;;
13218;SDS011;6674;49.152;11.918;2023-02-07T08:29:50;22.77;;;17.00;;
13218;SDS011;6674;49.152;11.918;2023-02-07T08:32:17;25.03;;;18.03;;
13218;SDS011;6674;49.152;11.918;2023-02-07T08:34:43;18.17;;;14.10;;
13218;SDS011;6674;49.152;11.918;2023-02-07T08:37:10;164.53;;;83.13;;
13218;SDS011;6674;49.152;11.918;2023-02-07T08:39:39;106.40;;;56.13;;
13218;SDS011;6674;49.152;11.918;2023-02-07T08:42:06;51.47;;;32.97;;
13218;SDS011;6674;49.152;11.918;2023-02-07T08:44:34;41.27;;;27.17;;
13218;SDS011;6674;49.152;11.918;2023-02-07T08:47:01;24.43;;;18.20;;
13218;SDS011;6674;49.152;11.918;2023-02-07T08:49:28;22.93;;;18.07;;
13218;SDS011;6674;49.152;11.918;2023-02-07T08:51:55;29.37;;;22.80;;
13218;SDS011;6674;49.152;11.918;2023-02-07T08:54:22;33.70;;;22.63;;
13218;SDS011;6674;49.152;11.918;2023-02-07T08:56:50;88.33;;;47.40;;
13218;SDS011;6674;49.152;11.918;2023-02-07T08:59:16;59.37;;;35.73;;
13218;SDS011;6674;49.152;11.918;2023-02-07T09:01:43;35.80;;;24.37;;
13218;SDS011;6674;49.152;11.918;2023-02-07T09:04:10;47.53;;;28.97;;
13218;SDS011;6674;49.152;11.918;2023-02-07T09:06:37;38.77;;;23.63;;
13218;SDS011;6674;49.152;11.918;2023-02-07T09:09:06;24.60;;;17.60;;
13218;SDS011;6674;49.152;11.918;2023-02-07T09:11:34;37.77;;;23.73;;
13218;SDS011;6674;49.152;11.918;2023-02-07T09:14:02;31.23;;;21.13;;
13218;SDS011;6674;49.152;11.918;2023-02-07T09:16:29;25.77;;;18.67;;
13218;SDS011;6674;49.152;11.918;2023-02-07T09:18:56;23.10;;;18.03;;
13218;SDS011;6674;49.152;11.918;2023-02-07T09:21:22;26.63;;;19.27;;
13218;SDS011;6674;49.152;11.918;2023-02-07T09:23:50;62.63;;;34.07;;
13218;SDS011;6674;49.152;11.918;2023-02-07T09:26:19;27.53;;;19.63;;
13218;SDS011;6674;49.152;11.918;2023-02-07T09:28:47;23.13;;;17.53;;
13218;SDS011;6674;49.152;11.918;2023-02-07T09:31:16;21.17;;;16.23;;
13218;SDS011;6674;49.152;11.918;2023-02-07T09:33:46;18.87;;;15.10;;
13218;SDS011;6674;49.152;11.918;2023-02-07T09:36:16;18.77;;;15.17;;
13218;SDS011;6674;49.152;11.918;2023-02-07T09:38:44;17.97;;;15.20;;
13218;SDS011;6674;49.152;11.918;2023-02-07T09:41:13;18.90;;;15.53;;
13218;SDS011;6674;49.152;11.918;2023-02-07T09:43:52;20.80;;;16.50;;
13218;SDS011;6674;49.152;11.918;2023-02-07T09:46:27;20.20;;;15.67;;
13218;SDS011;6674;49.152;11.918;2023-02-07T09:49:00;19.03;;;15.73;;
13218;SDS011;6674;49.152;11.918;2023-02-07T09:51:30;19.77;;;15.37;;
13218;SDS011;6674;49.152;11.918;2023-02-07T09:54:03;18.10;;;15.43;;
13218;SDS011;6674;49.152;11.918;2023-02-07T09:56:32;19.80;;;16.03;;
13218;SDS011;6674;49.152;11.918;2023-02-07T09:59:01;17.90;;;15.30;;
13218;SDS011;6674;49.152;11.918;2023-02-07T10:01:33;18.97;;;15.90;;
13218;SDS011;6674;49.152;11.918;2023-02-07T10:04:12;18.63;;;15.77;;
13218;SDS011;6674;49.152;11.918;2023-02-07T10:06:52;19.60;;;15.97;;
13218;SDS011;6674;49.152;11.918;2023-02-07T10:09:21;20.30;;;17.30;;
13218;SDS011;6674;49.152;11.918;2023-02-07T10:11:50;18.23;;;15.10;;
13218;SDS011;6674;49.152;11.918;2023-02-07T10:14:28;19.63;;;15.97;;
13218;SDS011;6674;49.152;11.918;2023-02-07T10:17:12;17.83;;;14.20;;
13218;SDS011;6674;49.152;11.918;2023-02-07T10:19:51;18.07;;;14.70;;
13218;SDS011;6674;49.152;11.918;2023-02-07T10:22:25;18.57;;;14.50;;
13218;SDS011;6674;49.152;11.918;2023-02-07T10:25:15;17.13;;;14.10;;
13218;SDS011;6674;49.152;11.918;2023-02-07T10:27:52;16.93;;;14.13;;
13218;SDS011;6674;49.152;11.918;2023-02-07T10:30:27;18.70;;;14.30;;
13218;SDS011;6674;49.152;11.918;2023-02-07T10:32:59;16.93;;;13.90;;
13218;SDS011;6674;49.152;11.918;2023-02-07T10:35:29;16.90;;;14.60;;
13218;SDS011;6674;49.152;11.918;2023-02-07T10:37:59;14.07;;;12.57;;
13218;SDS011;6674;49.152;11.918;2023-02-07T10:40:27;16.40;;;13.60;;
13218;SDS011;6674;49.152;11.918;2023-02-07T10:43:01;15.37;;;13.57;;
13218;SDS011;6674;49.152;11.918;2023-02-07T10:45:30;16.97;;;14.13;;
13218;SDS011;6674;49.152;11.918;2023-02-07T10:47:58;16.03;;;13.00;;
13218;SDS011;6674;49.152;11.918;2023-02-07T10:50:25;15.67;;;13.47;;
13218;SDS011;6674;49.152;11.918;2023-02-07T10:52:54;16.57;;;13.57;;
13218;SDS011;6674;49.152;11.918;2023-02-07T10:55:33;19.50;;;16.30;;
13218;SDS011;6674;49.152;11.918;2023-02-07T10:58:01;17.63;;;15.60;;
13218;SDS011;6674;49.152;11.918;2023-02-07T11:00:29;15.70;;;14.07;;
13218;SDS011;6674;49.152;11.918;2023-02-07T11:03:01;17.97;;;15.47;;
13218;SDS011;6674;49.152;11.918;2023-02-07T11:05:30;21.40;;;18.67;;
13218;SDS011;6674;49.152;11.918;2023-02-07T11:07:59;21.50;;;18.37;;
13218;SDS011;6674;49.152;11.918;2023-02-07T11:10:27;18.07;;;15.83;;
13218;SDS011;6674;49.152;11.918;2023-02-07T11:12:58;16.57;;;13.33;;
13218;SDS011;6674;49.152;11.918;2023-02-07T11:15:27;15.70;;;12.83;;
13218;SDS011;6674;49.152;11.918;2023-02-07T11:18:01;14.80;;;13.10;;
13218;SDS011;6674;49.152;11.918;2023-02-07T11:20:29;20.27;;;15.60;;
13218;SDS011;6674;49.152;11.918;2023-02-07T11:22:59;18.00;;;14.07;;
13218;SDS011;6674;49.152;11.918;2023-02-07T11:25:32;23.30;;;18.50;;
13218;SDS011;6674;49.152;11.918;2023-02-07T11:28:03;17.00;;;14.47;;
13218;SDS011;6674;49.152;11.918;2023-02-07T11:30:32;19.17;;;15.20;;
13218;SDS011;6674;49.152;11.918;2023-02-07T11:33:04;15.20;;;12.97;;
13218;SDS011;6674;49.152;11.918;2023-02-07T11:35:42;17.57;;;15.50;;
13218;SDS011;6674;49.152;11.918;2023-02-07T11:38:27;17.33;;;14.63;;
13218;SDS011;6674;49.152;11.918;2023-02-07T11:40:54;15.67;;;13.53;;
13218;SDS011;6674;49.152;11.918;2023-02-07T11:43:26;15.73;;;14.00;;
13218;SDS011;6674;49.152;11.918;2023-02-07T11:45:53;17.83;;;14.43;;
13218;SDS011;6674;49.152;11.918;2023-02-07T11:48:27;15.00;;;13.37;;
13218;SDS011;6674;49.152;11.918;2023-02-07T11:50:56;16.03;;;13.47;;
13218;SDS011;6674;49.152;11.918;2023-02-07T11:53:25;16.73;;;14.47;;
13218;SDS011;6674;49.152;11.918;2023-02-07T11:55:56;14.77;;;12.53;;
13218;SDS011;6674;49.152;11.918;2023-02-07T11:58:24;14.80;;;13.17;;
13218;SDS011;6674;49.152;11.918;2023-02-07T12:00:57;15.77;;;13.50;;
13218;SDS011;6674;49.152;11.918;2023-02-07T12:03:27;15.83;;;13.07;;
13218;SDS011;6674;49.152;11.918;2023-02-07T12:05:59;17.90;;;13.70;;
13218;SDS011;6674;49.152;11.918;2023-02-07T12:08:28;15.43;;;13.73;;
13218;SDS011;6674;49.152;11.918;2023-02-07T12:10:58;15.00;;;13.40;;
13218;SDS011;6674;49.152;11.918;2023-02-07T12:13:31;15.73;;;14.03;;
13218;SDS011;6674;49.152;11.918;2023-02-07T12:16:01;15.27;;;13.67;;
13218;SDS011;6674;49.152;11.918;2023-02-07T12:18:35;15.40;;;12.87;;
13218;SDS011;6674;49.152;11.918;2023-02-07T12:21:06;14.23;;;12.63;;
13218;SDS011;6674;49.152;11.918;2023-02-07T12:23:42;15.37;;;13.13;;
13218;SDS011;6674;49.152;11.918;2023-02-07T12:26:14;15.53;;;13.40;;
13218;SDS011;6674;49.152;11.918;2023-02-07T12:28:48;15.03;;;13.43;;
13218;SDS011;6674;49.152;11.918;2023-02-07T12:31:24;15.13;;;12.80;;
13218;SDS011;6674;49.152;11.918;2023-02-07T12:34:08;13.40;;;12.00;;
13218;SDS011;6674;49.152;11.918;2023-02-07T12:36:39;14.63;;;12.77;;
13218;SDS011;6674;49.152;11.918;2023-02-07T12:39:13;12.90;;;11.07;;
13218;SDS011;6674;49.152;11.918;2023-02-07T12:41:47;15.13;;;11.10;;
13218;SDS011;6674;49.152;11.918;2023-02-07T12:44:19;13.63;;;11.73;;
13218;SDS011;6674;49.152;11.918;2023-02-07T12:46:51;13.17;;;11.87;;
13218;SDS011;6674;49.152;11.918;2023-02-07T12:49:31;14.20;;;11.37;;
13218;SDS011;6674;49.152;11.918;2023-02-07T12:52:17;14.37;;;12.50;;
13218;SDS011;6674;49.152;11.918;2023-02-07T12:54:52;14.07;;;12.57;;
13218;SDS011;6674;49.152;11.918;2023-02-07T12:57:30;12.93;;;11.60;;
13218;SDS011;6674;49.152;11.918;2023-02-07T13:00:02;13.77;;;12.37;;
13218;SDS011;6674;49.152;11.918;2023-02-07T13:02:34;15.00;;;13.07;;
13218;SDS011;6674;49.152;11.918;2023-02-07T13:05:14;15.03;;;12.30;;
13218;SDS011;6674;49.152;11.918;2023-02-07T13:07:53;12.23;;;10.87;;
13218;SDS011;6674;49.152;11.918;2023-02-07T13:10:26;12.17;;;10.83;;
13218;SDS011;6674;49.152;11.918;2023-02-07T13:13:05;13.17;;;11.87;;
13218;SDS011;6674;49.152;11.918;2023-02-07T13:15:45;13.27;;;11.87;;
13218;SDS011;6674;49.152;11.918;2023-02-07T13:18:17;13.53;;;11.43;;
13218;SDS011;6674;49.152;11.918;2023-02-07T13:20:52;12.83;;;11.53;;
13218;SDS011;6674;49.152;11.918;2023-02-07T13:23:26;12.90;;;11.10;;
13218;SDS011;6674;49.152;11.918;2023-02-07T13:25:56;12.80;;;11.50;;
13218;SDS011;6674;49.152;11.918;2023-02-07T13:28:26;12.87;;;11.57;;
13218;SDS011;6674;49.152;11.918;2023-02-07T13:31:04;13.33;;;11.77;;
13218;SDS011;6674;49.152;11.918;2023-02-07T13:33:34;13.70;;;10.87;;
13218;SDS011;6674;49.152;11.918;2023-02-07T13:36:05;13.10;;;11.43;;
13218;SDS011;6674;49.152;11.918;2023-02-07T13:38:43;12.13;;;10.63;;
13218;SDS011;6674;49.152;11.918;2023-02-07T13:41:17;19.00;;;15.70;;
13218;SDS011;6674;49.152;11.918;2023-02-07T13:43:52;16.13;;;13.93;;
13218;SDS011;6674;49.152;11.918;2023-02-07T13:46:37;16.53;;;13.53;;
13218;SDS011;6674;49.152;11.918;2023-02-07T13:49:19;13.50;;;11.80;;
13218;SDS011;6674;49.152;11.918;2023-02-07T13:51:54;20.57;;;16.33;;
13218;SDS011;6674;49.152;11.918;2023-02-07T13:54:29;20.70;;;16.73;;
13218;SDS011;6674;49.152;11.918;2023-02-07T13:57:03;23.17;;;18.80;;
13218;SDS011;6674;49.152;11.918;2023-02-07T14:02:45;40.80;;;29.30;;
13218;SDS011;6674;49.152;11.918;2023-02-07T14:05:18;27.80;;;21.13;;
13218;SDS011;6674;49.152;11.918;2023-02-07T14:07:59;23.97;;;18.13;;
13218;SDS011;6674;49.152;11.918;2023-02-07T14:10:33;36.20;;;24.93;;
13218;SDS011;6674;49.152;11.918;2023-02-07T14:13:03;36.73;;;26.53;;
13218;SDS011;6674;49.152;11.918;2023-02-07T14:21:29;22.07;;;16.27;;
13218;SDS011;6674;49.152;11.918;2023-02-07T14:24:23;16.40;;;12.63;;
13218;SDS011;6674;49.152;11.918;2023-02-07T14:26:58;10.63;;;8.77;;
13218;SDS011;6674;49.152;11.918;2023-02-07T14:32:30;10.20;;;9.10;;
13218;SDS011;6674;49.152;11.918;2023-02-07T14:35:11;8.83;;;7.93;;
13218;SDS011;6674;49.152;11.918;2023-02-07T14:37:59;9.07;;;8.17;;
13218;SDS011;6674;49.152;11.918;2023-02-07T14:40:32;10.80;;;8.87;;
13218;SDS011;6674;49.152;11.918;2023-02-07T14:46:06;9.40;;;8.43;;
13218;SDS011;6674;49.152;11.918;2023-02-07T14:48:42;9.70;;;8.70;;
13218;SDS011;6674;49.152;11.918;2023-02-07T14:51:13;9.27;;;8.27;;
13218;SDS011;6674;49.152;11.918;2023-02-07T14:53:42;9.57;;;8.57;;
13218;SDS011;6674;49.152;11.918;2023-02-07T14:56:24;9.60;;;8.20;;
13218;SDS011;6674;49.152;11.918;2023-02-07T14:58:58;10.87;;;8.23;;
13218;SDS011;6674;49.152;11.918;2023-02-07T15:01:24;9.43;;;8.13;;
13218;SDS011;6674;49.152;11.918;2023-02-07T15:04:00;9.40;;;8.40;;